Time;durP1;ratioP1;P1;durP2;ratioP2;P2;SDS_P1;SDS_P2;PMS_P1;PMS_P2;Temp;Humidity;BMP_temperature;BMP_pressure;BME280_temperature;BME280_humidity;BME280_pressure;Samples;Min_cycle;Max_cycle;Signal;HPM_P1;HPM_P2
2021/07/19 00:01:33;;;;;;;36.78;18.58;;;;;;;;;;6197028;23;20517;-88
2021/07/19 00:04:39;;;;;;;38.67;19.70;;;;;;;;;;6195517;23;20240;-88
2021/07/19 00:07:44;;;;;;;57.00;20.48;;;;;;;;;;6195582;23;20208;-88
2021/07/19 00:10:50;;;;;;;42.28;19.92;;;;;;;;;;6194904;23;20172;-87
2021/07/19 00:13:57;;;;;;;47.40;21.05;;;;;;;;;;6194235;23;20171;-86
2021/07/19 00:17:01;;;;;;;40.17;21.10;;;;;;;;;;6195003;23;20238;-86
2021/07/19 00:20:07;;;;;;;44.05;21.13;;;;;;;;;;6195381;23;20172;-88
2021/07/19 00:23:12;;;;;;;40.75;18.95;;;;;;;;;;6195713;23;20316;-87
2021/07/19 00:26:20;;;;;;;34.78;17.95;;;;;;;;;;6196348;23;20212;-87
2021/07/19 00:29:26;;;;;;;41.83;19.05;;;;;;;;;;6195376;23;20176;-88
2021/07/19 00:32:31;;;;;;;46.65;20.42;;;;;;;;;;6195840;23;20780;-89
2021/07/19 00:35:36;;;;;;;54.88;20.25;;;;;;;;;;6194576;23;20195;-88
2021/07/19 00:38:41;;;;;;;55.65;19.95;;;;;;;;;;6192834;23;20327;-87
2021/07/19 00:41:47;;;;;;;40.35;19.20;;;;;;;;;;6194738;23;20168;-88
2021/07/19 00:44:53;;;;;;;32.75;16.90;;;;;;;;;;6193055;23;20243;-86
2021/07/19 00:47:59;;;;;;;35.40;16.95;;;;;;;;;;6193824;23;20168;-87
2021/07/19 00:51:05;;;;;;;31.70;16.83;;;;;;;;;;6192870;23;20179;-87
2021/07/19 00:54:12;;;;;;;33.08;17.67;;;;;;;;;;6193841;23;20295;-87
2021/07/19 00:57:19;;;;;;;37.08;18.00;;;;;;;;;;6194618;23;20191;-86
2021/07/19 01:00:27;;;;;;;38.38;18.33;;;;;;;;;;6193333;23;20168;-87
2021/07/19 01:03:34;;;;;;;61.83;18.00;;;;;;;;;;6193536;23;20215;-87
2021/07/19 01:06:42;;;;;;;53.85;18.63;;;;;;;;;;6193950;23;20176;-88
2021/07/19 01:09:47;;;;;;;33.83;17.30;;;;;;;;;;6194748;23;20187;-86
2021/07/19 01:12:53;;;;;;;45.38;16.77;;;;;;;;;;6195922;23;20162;-88
2021/07/19 01:16:02;;;;;;;32.83;16.48;;;;;;;;;;6195183;23;20199;-87
2021/07/19 01:19:10;;;;;;;41.88;17.88;;;;;;;;;;6193797;23;20568;-86
2021/07/19 01:22:38;;;;;;;44.92;17.40;;;;;;;;;;6193952;23;20246;-86
2021/07/19 01:25:58;;;;;;;38.25;16.58;;;;;;;;;;6195872;23;20505;-87
2021/07/19 01:29:06;;;;;;;44.90;16.08;;;;;;;;;;6195157;23;20172;-88
2021/07/19 01:32:13;;;;;;;36.20;16.67;;;;;;;;;;6196142;23;20172;-87
2021/07/19 01:35:19;;;;;;;28.85;15.60;;;;;;;;;;6195951;23;20258;-87
2021/07/19 01:38:25;;;;;;;28.35;14.15;;;;;;;;;;6194962;23;20299;-88
2021/07/19 01:41:32;;;;;;;24.70;13.93;;;;;;;;;;6195602;23;20191;-88
2021/07/19 01:44:40;;;;;;;27.17;14.88;;;;;;;;;;6196439;23;20215;-87
2021/07/19 01:47:48;;;;;;;24.38;13.75;;;;;;;;;;6196353;23;20172;-88
2021/07/19 01:50:54;;;;;;;27.33;14.50;;;;;;;;;;6194497;23;20171;-88
2021/07/19 01:54:06;;;;;;;23.70;13.18;;;;;;;;;;6194709;23;20219;-87
2021/07/19 01:57:11;;;;;;;22.83;13.20;;;;;;;;;;6194984;23;20281;-88
2021/07/19 02:00:25;;;;;;;21.40;12.65;;;;;;;;;;6195170;23;20167;-87
2021/07/19 02:03:40;;;;;;;20.83;12.40;;;;;;;;;;6195772;23;20175;-87
2021/07/19 02:06:47;;;;;;;21.05;12.10;;;;;;;;;;6195044;23;20295;-88
2021/07/19 02:09:53;;;;;;;19.20;11.32;;;;;;;;;;6194618;23;20176;-87
2021/07/19 02:13:16;;;;;;;20.42;11.82;;;;;;;;;;6195506;23;20179;-86
2021/07/19 02:16:27;;;;;;;22.75;12.88;;;;;;;;;;6197038;23;20196;-88
2021/07/19 02:19:31;;;;;;;22.25;12.70;;;;;;;;;;6194823;23;20658;-86
2021/07/19 02:22:42;;;;;;;23.98;11.63;;;;;;;;;;6195400;23;20242;-87
2021/07/19 02:26:07;;;;;;;19.48;12.13;;;;;;;;;;6195061;23;20275;-88
2021/07/19 02:29:13;;;;;;;20.42;11.65;;;;;;;;;;6193737;23;20193;-86
2021/07/19 02:32:21;;;;;;;18.27;11.75;;;;;;;;;;6194905;23;20159;-85
2021/07/19 02:35:31;;;;;;;19.27;11.85;;;;;;;;;;6194926;23;20180;-87
2021/07/19 02:38:36;;;;;;;23.17;11.70;;;;;;;;;;6194677;23;20216;-86
2021/07/19 02:41:56;;;;;;;18.80;11.00;;;;;;;;;;6196436;23;20220;-87
2021/07/19 02:45:04;;;;;;;21.60;11.52;;;;;;;;;;6194415;23;20196;-87
2021/07/19 02:48:22;;;;;;;22.55;11.20;;;;;;;;;;6194498;23;20195;-87
2021/07/19 02:51:31;;;;;;;17.80;10.05;;;;;;;;;;6194323;23;20167;-87
2021/07/19 02:54:52;;;;;;;17.13;10.63;;;;;;;;;;6195881;23;20172;-88
2021/07/19 02:58:05;;;;;;;16.30;10.15;;;;;;;;;;6195590;23;20172;-88
2021/07/19 03:01:11;;;;;;;17.45;10.40;;;;;;;;;;6195883;23;20251;-88
2021/07/19 03:04:19;;;;;;;16.90;10.32;;;;;;;;;;6196907;23;20250;-86
2021/07/19 03:07:26;;;;;;;15.05;9.52;;;;;;;;;;6195615;23;20176;-86
2021/07/19 03:10:34;;;;;;;14.82;9.20;;;;;;;;;;6197032;23;20171;-88
2021/07/19 03:13:42;;;;;;;17.55;10.65;;;;;;;;;;6197538;23;20171;-87
2021/07/19 03:16:51;;;;;;;18.90;9.23;;;;;;;;;;6195889;23;20182;-86
2021/07/19 03:19:59;;;;;;;16.90;9.70;;;;;;;;;;6194959;23;20502;-89
2021/07/19 03:23:07;;;;;;;16.90;9.50;;;;;;;;;;6195264;23;20195;-87
2021/07/19 03:26:21;;;;;;;19.77;9.90;;;;;;;;;;6195071;23;20172;-88
2021/07/19 03:29:30;;;;;;;18.13;10.27;;;;;;;;;;6194381;23;20316;-88
2021/07/19 03:32:54;;;;;;;16.75;10.52;;;;;;;;;;6196924;23;20156;-88
2021/07/19 03:36:04;;;;;;;15.82;10.60;;;;;;;;;;6194635;23;20195;-89
2021/07/19 03:39:13;;;;;;;22.77;10.77;;;;;;;;;;6195665;23;20172;-89
2021/07/19 03:42:27;;;;;;;16.83;10.38;;;;;;;;;;6194017;23;20259;-87
2021/07/19 03:45:35;;;;;;;15.75;10.00;;;;;;;;;;6193741;23;20172;-90
2021/07/19 03:48:42;;;;;;;16.10;9.77;;;;;;;;;;6195547;23;20223;-88
2021/07/19 03:51:50;;;;;;;16.05;9.57;;;;;;;;;;6195951;23;20295;-88
2021/07/19 03:54:56;;;;;;;17.80;9.85;;;;;;;;;;6197056;23;20187;-89
2021/07/19 03:58:05;;;;;;;15.07;9.20;;;;;;;;;;6194529;23;20168;-87
2021/07/19 04:01:13;;;;;;;14.43;9.80;;;;;;;;;;6194652;23;20179;-87
2021/07/19 04:04:30;;;;;;;15.93;9.40;;;;;;;;;;6197122;23;20168;-88
2021/07/19 04:07:38;;;;;;;19.67;9.68;;;;;;;;;;6195134;23;20168;-89
2021/07/19 04:10:45;;;;;;;15.30;9.32;;;;;;;;;;6197263;23;20180;-88
2021/07/19 04:13:51;;;;;;;23.27;10.77;;;;;;;;;;6196620;23;20211;-86
2021/07/19 04:16:56;;;;;;;21.58;9.57;;;;;;;;;;6196382;23;20219;-87
2021/07/19 04:20:03;;;;;;;15.90;10.13;;;;;;;;;;6200655;23;20229;-88
2021/07/19 04:23:14;;;;;;;15.30;9.57;;;;;;;;;;6184655;23;20187;-87
2021/07/19 04:26:23;;;;;;;15.73;9.77;;;;;;;;;;6201860;23;20211;-87
2021/07/19 04:29:34;;;;;;;21.88;10.55;;;;;;;;;;6201201;23;20159;-88
2021/07/19 04:32:47;;;;;;;17.45;9.05;;;;;;;;;;6195512;23;20168;-89
2021/07/19 04:35:52;;;;;;;18.48;10.05;;;;;;;;;;6196012;23;20194;-88
2021/07/19 04:39:02;;;;;;;16.08;9.57;;;;;;;;;;6196397;23;20607;-88
2021/07/19 04:42:11;;;;;;;17.05;9.85;;;;;;;;;;6196845;23;20175;-86
2021/07/19 04:45:18;;;;;;;15.73;8.25;;;;;;;;;;6198373;23;20204;-86
2021/07/19 04:48:24;;;;;;;15.50;7.70;;;;;;;;;;6196106;23;20223;-89
2021/07/19 04:51:29;;;;;;;13.73;7.20;;;;;;;;;;6196900;23;20421;-85
2021/07/19 04:54:39;;;;;;;15.57;7.57;;;;;;;;;;6199583;23;20163;-87
2021/07/19 04:57:44;;;;;;;13.73;7.85;;;;;;;;;;6197990;23;20195;-89
2021/07/19 05:00:51;;;;;;;16.67;8.77;;;;;;;;;;6199599;23;20249;-88
2021/07/19 05:03:57;;;;;;;17.75;8.35;;;;;;;;;;6200180;23;20167;-86
2021/07/19 05:07:02;;;;;;;19.77;7.85;;;;;;;;;;6199112;23;20187;-87
2021/07/19 05:10:09;;;;;;;18.40;8.23;;;;;;;;;;6198658;23;20215;-87
2021/07/19 05:13:15;;;;;;;15.18;8.27;;;;;;;;;;6199257;23;20211;-86
2021/07/19 05:16:21;;;;;;;16.42;8.75;;;;;;;;;;6200367;23;20510;-85
2021/07/19 05:22:48;;;;;;;17.73;9.55;;;;;;;;;;6199330;23;20255;-87
2021/07/19 05:25:57;;;;;;;16.25;9.02;;;;;;;;;;6179642;23;20172;-87
2021/07/19 05:29:03;;;;;;;15.13;8.82;;;;;;;;;;6200143;23;20176;-88
2021/07/19 05:32:10;;;;;;;16.33;8.98;;;;;;;;;;6181172;23;20155;-86
2021/07/19 05:35:16;;;;;;;20.13;8.35;;;;;;;;;;6198758;23;20159;-86
2021/07/19 05:38:23;;;;;;;17.33;9.40;;;;;;;;;;6198248;23;20178;-87
2021/07/19 05:41:33;;;;;;;17.45;9.27;;;;;;;;;;6200370;23;20175;-87
2021/07/19 05:44:38;;;;;;;26.65;8.65;;;;;;;;;;6198337;23;20163;-88
2021/07/19 05:47:50;;;;;;;14.27;7.80;;;;;;;;;;6197531;23;20665;-88
2021/07/19 05:50:57;;;;;;;12.07;8.00;;;;;;;;;;6198812;23;20657;-88
2021/07/19 05:54:03;;;;;;;15.77;7.35;;;;;;;;;;6202097;23;20175;-88
2021/07/19 05:57:10;;;;;;;12.07;7.45;;;;;;;;;;6197202;23;20323;-87
2021/07/19 06:00:18;;;;;;;15.63;7.40;;;;;;;;;;6198304;23;20159;-87
2021/07/19 06:03:23;;;;;;;13.27;7.57;;;;;;;;;;6198547;23;20168;-88
2021/07/19 06:06:29;;;;;;;16.70;8.10;;;;;;;;;;6198125;23;20167;-88
2021/07/19 06:09:34;;;;;;;12.02;7.70;;;;;;;;;;6196153;23;20196;-86
2021/07/19 06:12:42;;;;;;;14.68;7.95;;;;;;;;;;6196534;23;20241;-87
2021/07/19 06:15:48;;;;;;;12.27;7.60;;;;;;;;;;6197588;23;20168;-86
2021/07/19 06:18:53;;;;;;;19.40;7.75;;;;;;;;;;6197855;23;20283;-88
2021/07/19 06:21:58;;;;;;;13.80;7.78;;;;;;;;;;6198516;23;20243;-87
2021/07/19 06:25:04;;;;;;;12.20;6.30;;;;;;;;;;6197101;23;20639;-89
2021/07/19 06:28:11;;;;;;;13.88;6.93;;;;;;;;;;6199264;23;20171;-86
2021/07/19 06:31:16;;;;;;;12.95;7.20;;;;;;;;;;6200532;23;20176;-87
2021/07/19 06:34:22;;;;;;;9.57;6.13;;;;;;;;;;6199072;23;20191;-87
2021/07/19 06:37:27;;;;;;;11.75;7.15;;;;;;;;;;6199496;23;20243;-88
2021/07/19 06:40:32;;;;;;;11.07;6.60;;;;;;;;;;6200393;23;20176;-87
2021/07/19 06:43:40;;;;;;;14.95;6.53;;;;;;;;;;6200833;23;20183;-86
2021/07/19 06:46:45;;;;;;;13.93;6.10;;;;;;;;;;6198158;23;20175;-89
2021/07/19 06:49:50;;;;;;;15.55;6.13;;;;;;;;;;6198266;23;20172;-88
2021/07/19 06:52:56;;;;;;;9.77;5.85;;;;;;;;;;6201752;23;20500;-88
2021/07/19 06:56:03;;;;;;;8.25;5.47;;;;;;;;;;6198004;23;20168;-86
2021/07/19 06:59:11;;;;;;;9.82;5.72;;;;;;;;;;6195182;23;20215;-87
2021/07/19 07:02:16;;;;;;;9.48;5.32;;;;;;;;;;6198044;23;20587;-88
2021/07/19 07:05:21;;;;;;;8.02;4.90;;;;;;;;;;6198874;23;20208;-88
2021/07/19 07:08:28;;;;;;;12.73;5.88;;;;;;;;;;6198364;23;20172;-87
2021/07/19 07:11:34;;;;;;;7.38;4.47;;;;;;;;;;6199031;23;20173;-88
2021/07/19 07:14:40;;;;;;;9.35;4.47;;;;;;;;;;6194415;23;20160;-87
2021/07/19 07:17:50;;;;;;;7.57;4.50;;;;;;;;;;6201731;23;20183;-86
2021/07/19 07:20:55;;;;;;;9.10;4.90;;;;;;;;;;6213975;23;20180;-87
2021/07/19 07:24:01;;;;;;;10.00;4.47;;;;;;;;;;6197014;23;20207;-88
2021/07/19 07:27:06;;;;;;;11.25;4.40;;;;;;;;;;6199087;23;20163;-87
2021/07/19 07:30:15;;;;;;;12.02;4.47;;;;;;;;;;6198737;23;20195;-87
2021/07/19 07:33:20;;;;;;;8.18;4.88;;;;;;;;;;6200116;23;20172;-86
2021/07/19 07:36:26;;;;;;;10.07;4.43;;;;;;;;;;6199227;23;20240;-87
2021/07/19 07:39:31;;;;;;;7.93;4.40;;;;;;;;;;6200065;23;20556;-88
2021/07/19 07:42:36;;;;;;;7.03;4.50;;;;;;;;;;6202573;23;20181;-87
2021/07/19 07:45:44;;;;;;;7.53;4.53;;;;;;;;;;6201417;23;20164;-88
2021/07/19 07:48:49;;;;;;;6.68;4.28;;;;;;;;;;6195527;23;20191;-87
2021/07/19 07:51:54;;;;;;;9.10;4.18;;;;;;;;;;6197692;23;20220;-88
2021/07/19 07:55:00;;;;;;;12.80;4.07;;;;;;;;;;6196612;23;20242;-88
2021/07/19 07:58:07;;;;;;;8.18;4.30;;;;;;;;;;6197357;23;20220;-90
2021/07/19 08:01:13;;;;;;;11.90;4.50;;;;;;;;;;6197437;23;20175;-89
2021/07/19 08:04:18;;;;;;;7.30;3.83;;;;;;;;;;6198325;23;20615;-88
2021/07/19 08:07:24;;;;;;;7.97;3.63;;;;;;;;;;6195854;23;20164;-88
2021/07/19 08:10:29;;;;;;;8.15;4.18;;;;;;;;;;6198095;23;20167;-89
2021/07/19 08:13:35;;;;;;;7.07;4.03;;;;;;;;;;6197663;23;20164;-88
2021/07/19 08:16:41;;;;;;;11.32;3.60;;;;;;;;;;6198304;23;20168;-89
2021/07/19 08:19:47;;;;;;;7.38;3.72;;;;;;;;;;6195042;23;20290;-88
2021/07/19 08:22:52;;;;;;;6.60;3.30;;;;;;;;;;6197392;23;20192;-89
2021/07/19 08:25:57;;;;;;;10.50;3.90;;;;;;;;;;6195235;23;20183;-89
2021/07/19 08:29:02;;;;;;;4.68;3.22;;;;;;;;;;6196699;23;20171;-89
2021/07/19 08:32:09;;;;;;;8.23;3.70;;;;;;;;;;6197787;23;20167;-88
2021/07/19 08:35:15;;;;;;;6.78;3.38;;;;;;;;;;6198695;23;20172;-89
2021/07/19 08:38:21;;;;;;;8.10;3.40;;;;;;;;;;6199407;23;20186;-88
2021/07/19 08:41:26;;;;;;;5.68;3.58;;;;;;;;;;6195598;23;20175;-89
2021/07/19 08:44:31;;;;;;;11.15;3.40;;;;;;;;;;6197034;23;20167;-88
2021/07/19 08:47:38;;;;;;;11.93;3.20;;;;;;;;;;6197447;23;20242;-88
2021/07/19 08:50:43;;;;;;;5.60;2.80;;;;;;;;;;6197444;23;20183;-89
2021/07/19 08:53:49;;;;;;;8.80;2.60;;;;;;;;;;6199910;23;20602;-88
2021/07/19 08:56:55;;;;;;;3.40;2.30;;;;;;;;;;6198203;23;20163;-89
2021/07/19 09:00:02;;;;;;;8.20;2.35;;;;;;;;;;6198877;23;20220;-89
2021/07/19 09:03:11;;;;;;;9.00;2.50;;;;;;;;;;6220485;23;20179;-88
2021/07/19 09:06:15;;;;;;;5.00;2.40;;;;;;;;;;6199713;23;20171;-90
2021/07/19 09:09:28;;;;;;;4.68;2.15;;;;;;;;;;6197067;23;20219;-87
2021/07/19 09:12:33;;;;;;;4.97;2.20;;;;;;;;;;6196124;23;20183;-88
2021/07/19 09:15:39;;;;;;;5.13;2.28;;;;;;;;;;6194500;23;20166;-89
2021/07/19 09:18:45;;;;;;;10.07;2.33;;;;;;;;;;6195001;23;20183;-88
2021/07/19 09:21:52;;;;;;;7.20;1.95;;;;;;;;;;6193866;23;20163;-89
2021/07/19 09:25:06;;;;;;;6.65;2.20;;;;;;;;;;6195213;23;20171;-88
2021/07/19 09:28:12;;;;;;;3.97;1.90;;;;;;;;;;6195336;23;20175;-90
2021/07/19 09:31:17;;;;;;;6.05;1.60;;;;;;;;;;6195270;23;20162;-89
2021/07/19 09:34:25;;;;;;;9.35;1.98;;;;;;;;;;6195187;23;20166;-86
2021/07/19 09:37:30;;;;;;;5.22;1.90;;;;;;;;;;6196243;23;20190;-88
2021/07/19 09:40:36;;;;;;;7.15;2.20;;;;;;;;;;6196363;23;20314;-88
2021/07/19 09:43:42;;;;;;;5.68;1.90;;;;;;;;;;6195078;23;20179;-89
2021/07/19 09:46:48;;;;;;;7.43;2.10;;;;;;;;;;6201314;23;20236;-90
2021/07/19 09:49:54;;;;;;;5.80;1.90;;;;;;;;;;6193408;23;20668;-89
2021/07/19 09:53:00;;;;;;;7.60;1.92;;;;;;;;;;6198073;23;20208;-89
2021/07/19 09:56:12;;;;;;;7.18;1.98;;;;;;;;;;6196952;23;20162;-88
2021/07/19 09:59:18;;;;;;;5.18;1.88;;;;;;;;;;6200001;23;20198;-92
2021/07/19 10:02:34;;;;;;;7.55;2.28;;;;;;;;;;6201044;23;20218;-90
2021/07/19 10:05:44;;;;;;;5.47;2.30;;;;;;;;;;6201799;23;20194;-89
2021/07/19 10:08:56;;;;;;;6.60;2.35;;;;;;;;;;6200204;23;20170;-90
2021/07/19 10:12:05;;;;;;;11.10;2.25;;;;;;;;;;6201944;23;20162;-90
2021/07/19 10:15:11;;;;;;;5.47;2.30;;;;;;;;;;6197864;23;20171;-89
2021/07/19 10:18:17;;;;;;;5.72;2.03;;;;;;;;;;6203655;23;20195;-89
2021/07/19 10:21:28;;;;;;;5.30;2.50;;;;;;;;;;6196533;23;20178;-88
2021/07/19 10:24:35;;;;;;;5.50;2.05;;;;;;;;;;6196644;23;20166;-87
2021/07/19 10:27:40;;;;;;;4.63;1.88;;;;;;;;;;6199567;23;20159;-88
2021/07/19 10:30:45;;;;;;;5.10;2.30;;;;;;;;;;6199292;23;20215;-89
2021/07/19 10:33:52;;;;;;;7.63;2.25;;;;;;;;;;6198038;23;20235;-88
2021/07/19 10:37:01;;;;;;;5.00;2.35;;;;;;;;;;6198539;23;20167;-88
2021/07/19 10:40:10;;;;;;;9.35;2.22;;;;;;;;;;6198747;23;20231;-88
2021/07/19 10:43:16;;;;;;;6.78;2.17;;;;;;;;;;6197130;23;20175;-88
2021/07/19 10:46:27;;;;;;;4.97;2.28;;;;;;;;;;6197704;23;20593;-90
2021/07/19 10:49:34;;;;;;;6.72;2.60;;;;;;;;;;6195705;23;20167;-89
2021/07/19 10:52:41;;;;;;;8.18;3.00;;;;;;;;;;6196540;23;20175;-88
2021/07/19 10:55:47;;;;;;;6.30;2.58;;;;;;;;;;6196795;23;20225;-87
2021/07/19 10:58:51;;;;;;;5.32;2.30;;;;;;;;;;6196400;23;20194;-88
2021/07/19 11:01:59;;;;;;;6.22;2.35;;;;;;;;;;6198715;23;20167;-89
2021/07/19 11:05:05;;;;;;;6.68;2.55;;;;;;;;;;6197320;23;20286;-89
2021/07/19 11:08:23;;;;;;;7.35;2.38;;;;;;;;;;6198239;23;20215;-88
2021/07/19 11:11:30;;;;;;;5.30;2.30;;;;;;;;;;6199859;23;20183;-88
2021/07/19 11:14:43;;;;;;;5.93;2.50;;;;;;;;;;6201146;23;20175;-90
2021/07/19 11:17:48;;;;;;;6.72;2.50;;;;;;;;;;6199147;23;20194;-90
2021/07/19 11:20:52;;;;;;;6.60;2.55;;;;;;;;;;6197174;23;20167;-88
2021/07/19 11:24:07;;;;;;;6.55;2.45;;;;;;;;;;6194981;23;20644;-87
2021/07/19 11:27:17;;;;;;;4.25;2.42;;;;;;;;;;6196714;23;20287;-89
2021/07/19 11:30:25;;;;;;;5.85;2.75;;;;;;;;;;6198758;23;20174;-90
2021/07/19 11:33:35;;;;;;;8.32;2.83;;;;;;;;;;6198318;23;20179;-88
2021/07/19 11:36:46;;;;;;;8.50;2.63;;;;;;;;;;6198153;23;20186;-89
2021/07/19 11:39:54;;;;;;;5.40;2.55;;;;;;;;;;6198315;23;20191;-87
2021/07/19 11:43:09;;;;;;;6.28;2.67;;;;;;;;;;6196171;23;20487;-90
2021/07/19 11:46:23;;;;;;;4.55;2.40;;;;;;;;;;6197287;23;20171;-89
2021/07/19 11:49:28;;;;;;;6.47;2.65;;;;;;;;;;6197561;23;20171;-89
2021/07/19 11:52:34;;;;;;;5.10;2.15;;;;;;;;;;6196953;23;20187;-90
2021/07/19 11:55:41;;;;;;;5.18;2.67;;;;;;;;;;6199152;23;20167;-89
2021/07/19 11:58:51;;;;;;;6.25;2.40;;;;;;;;;;6196936;23;20635;-86
2021/07/19 12:01:56;;;;;;;6.75;2.65;;;;;;;;;;6197130;23;20223;-87
2021/07/19 12:05:02;;;;;;;11.73;2.90;;;;;;;;;;6198643;23;20195;-89
2021/07/19 12:08:09;;;;;;;6.30;2.40;;;;;;;;;;6195830;23;20171;-88
2021/07/19 12:11:16;;;;;;;5.90;2.50;;;;;;;;;;6196796;23;20171;-88
2021/07/19 12:14:21;;;;;;;5.00;2.15;;;;;;;;;;6195563;23;20241;-88
2021/07/19 12:17:30;;;;;;;7.20;2.67;;;;;;;;;;6196343;23;20187;-90
2021/07/19 12:20:39;;;;;;;6.60;2.22;;;;;;;;;;6197225;23;20171;-88
2021/07/19 12:23:45;;;;;;;6.47;2.38;;;;;;;;;;6195534;23;20174;-88
2021/07/19 12:26:54;;;;;;;7.18;2.53;;;;;;;;;;6200093;23;20187;-90
2021/07/19 12:29:59;;;;;;;10.88;2.70;;;;;;;;;;6198334;23;20176;-89
2021/07/19 12:33:04;;;;;;;7.90;2.85;;;;;;;;;;6199435;23;20178;-90
2021/07/19 12:36:10;;;;;;;5.28;2.53;;;;;;;;;;6198982;23;20302;-89
2021/07/19 12:39:15;;;;;;;6.80;2.78;;;;;;;;;;6197886;23;20182;-88
2021/07/19 12:42:23;;;;;;;4.28;2.75;;;;;;;;;;6199528;23;20227;-89
2021/07/19 12:45:29;;;;;;;6.15;2.53;;;;;;;;;;6196356;23;20163;-90
2021/07/19 12:48:36;;;;;;;11.35;2.80;;;;;;;;;;6196089;23;20171;-89
2021/07/19 12:51:42;;;;;;;7.70;2.50;;;;;;;;;;6197454;23;20191;-89
2021/07/19 12:54:55;;;;;;;8.98;3.20;;;;;;;;;;6197352;23;20195;-89
2021/07/19 12:58:02;;;;;;;5.10;3.20;;;;;;;;;;6196324;23;20170;-91
2021/07/19 13:01:11;;;;;;;6.57;2.28;;;;;;;;;;6194797;23;20209;-89
2021/07/19 13:04:18;;;;;;;4.75;2.30;;;;;;;;;;6195635;23;20171;-90
2021/07/19 13:07:30;;;;;;;5.45;2.53;;;;;;;;;;6195106;23;20187;-90
2021/07/19 13:10:35;;;;;;;8.18;3.70;;;;;;;;;;6196999;23;20171;-88
2021/07/19 13:13:41;;;;;;;6.25;2.30;;;;;;;;;;6198859;23;20167;-89
2021/07/19 13:16:57;;;;;;;7.57;2.53;;;;;;;;;;6196097;23;20586;-88
2021/07/19 13:20:06;;;;;;;7.18;2.20;;;;;;;;;;6194900;23;20195;-91
2021/07/19 13:23:12;;;;;;;7.05;2.22;;;;;;;;;;6195676;23;20266;-89
2021/07/19 13:26:21;;;;;;;7.80;2.63;;;;;;;;;;6198452;23;20175;-90
2021/07/19 13:29:29;;;;;;;10.57;2.40;;;;;;;;;;6196723;23;20673;-90
2021/07/19 13:32:34;;;;;;;7.18;2.30;;;;;;;;;;6196874;23;20174;-88
2021/07/19 13:35:40;;;;;;;11.00;2.53;;;;;;;;;;6196672;23;20175;-87
2021/07/19 13:38:47;;;;;;;7.70;2.30;;;;;;;;;;6196894;23;20194;-89
2021/07/19 13:42:01;;;;;;;5.43;2.25;;;;;;;;;;6197258;23;20211;-89
2021/07/19 13:45:09;;;;;;;10.10;2.80;;;;;;;;;;6200997;23;20175;-90
2021/07/19 13:48:14;;;;;;;4.90;2.28;;;;;;;;;;6197414;23;20183;-88
2021/07/19 13:51:20;;;;;;;6.68;2.35;;;;;;;;;;6195800;23;20159;-90
2021/07/19 13:54:25;;;;;;;5.55;2.03;;;;;;;;;;6196983;23;20166;-88
2021/07/19 13:57:30;;;;;;;5.65;2.20;;;;;;;;;;6197415;23;20622;-89
2021/07/19 14:00:38;;;;;;;7.22;2.20;;;;;;;;;;6196903;23;20269;-88
2021/07/19 14:03:43;;;;;;;6.70;2.05;;;;;;;;;;6195827;23;20256;-88
2021/07/19 14:06:48;;;;;;;8.63;2.20;;;;;;;;;;6193692;23;20182;-88
2021/07/19 14:09:53;;;;;;;7.03;2.08;;;;;;;;;;6196968;23;20154;-87
2021/07/19 14:13:01;;;;;;;6.53;2.25;;;;;;;;;;6194874;23;20180;-87
2021/07/19 14:16:08;;;;;;;5.03;2.17;;;;;;;;;;6194553;23;20213;-89
2021/07/19 14:19:14;;;;;;;5.35;2.08;;;;;;;;;;6194891;23;20209;-88
2021/07/19 14:22:19;;;;;;;4.50;1.95;;;;;;;;;;6196365;23;20207;-88
2021/07/19 14:25:24;;;;;;;7.75;1.98;;;;;;;;;;6199587;23;20167;-88
2021/07/19 14:28:30;;;;;;;5.70;1.90;;;;;;;;;;6196253;23;20155;-89
2021/07/19 14:31:36;;;;;;;6.75;2.10;;;;;;;;;;6193439;23;20234;-88
2021/07/19 14:34:41;;;;;;;6.13;2.20;;;;;;;;;;6197883;23;20215;-88
2021/07/19 14:37:46;;;;;;;6.72;2.15;;;;;;;;;;6194376;23;20296;-90
2021/07/19 14:40:52;;;;;;;7.10;1.80;;;;;;;;;;6194441;23;20186;-89
2021/07/19 14:43:57;;;;;;;6.80;1.98;;;;;;;;;;6196141;23;20175;-88
2021/07/19 14:47:04;;;;;;;11.07;2.40;;;;;;;;;;6196715;23;20150;-89
2021/07/19 14:50:10;;;;;;;6.75;2.35;;;;;;;;;;6195557;23;20242;-89
2021/07/19 14:53:15;;;;;;;7.15;2.33;;;;;;;;;;6199461;23;20163;-89
2021/07/19 14:56:20;;;;;;;8.60;2.80;;;;;;;;;;6197276;23;20167;-90
2021/07/19 14:59:25;;;;;;;7.55;2.25;;;;;;;;;;6196831;23;20195;-88
2021/07/19 15:02:32;;;;;;;8.18;2.30;;;;;;;;;;6198099;23;20250;-89
2021/07/19 15:05:37;;;;;;;6.13;2.20;;;;;;;;;;6197464;23;20277;-89
2021/07/19 15:08:41;;;;;;;5.03;2.25;;;;;;;;;;6197342;23;20214;-87
2021/07/19 15:11:47;;;;;;;6.35;1.98;;;;;;;;;;6199957;23;20156;-88
2021/07/19 15:14:52;;;;;;;6.60;1.95;;;;;;;;;;6197380;23;20171;-88
2021/07/19 15:17:58;;;;;;;3.83;1.98;;;;;;;;;;6198523;23;20171;-87
2021/07/19 15:21:03;;;;;;;8.98;2.10;;;;;;;;;;6197332;23;20163;-88
2021/07/19 15:24:08;;;;;;;5.53;2.00;;;;;;;;;;6197922;23;20227;-88
2021/07/19 15:27:13;;;;;;;9.02;2.60;;;;;;;;;;6195680;23;20168;-89
2021/07/19 15:30:19;;;;;;;4.78;2.25;;;;;;;;;;6196585;23;20176;-87
2021/07/19 15:33:26;;;;;;;5.72;2.15;;;;;;;;;;6193593;23;20486;-89
2021/07/19 15:36:32;;;;;;;6.75;2.33;;;;;;;;;;6196658;23;20209;-88
2021/07/19 15:39:37;;;;;;;8.27;2.55;;;;;;;;;;6195525;23;20275;-89
2021/07/19 15:42:42;;;;;;;6.65;2.55;;;;;;;;;;6196722;23;20175;-88
2021/07/19 15:45:47;;;;;;;6.70;2.33;;;;;;;;;;6196226;23;20229;-88
2021/07/19 15:48:54;;;;;;;13.60;2.75;;;;;;;;;;6194127;23;20167;-88
2021/07/19 15:51:59;;;;;;;7.22;2.40;;;;;;;;;;6194085;23;20203;-88
2021/07/19 15:55:04;;;;;;;5.43;2.13;;;;;;;;;;6194778;23;20167;-88
2021/07/19 15:58:10;;;;;;;8.55;2.50;;;;;;;;;;6194264;23;20228;-86
2021/07/19 16:01:15;;;;;;;4.93;1.75;;;;;;;;;;6194052;23;20156;-87
2021/07/19 16:04:21;;;;;;;4.22;2.22;;;;;;;;;;6194476;23;20164;-89
2021/07/19 16:07:26;;;;;;;5.85;2.50;;;;;;;;;;6194339;23;20166;-88
2021/07/19 16:10:32;;;;;;;8.18;2.80;;;;;;;;;;6195408;23;20183;-88
2021/07/19 16:13:37;;;;;;;6.68;2.33;;;;;;;;;;6193962;23;20176;-87
2021/07/19 16:16:42;;;;;;;6.97;2.35;;;;;;;;;;6195313;23;20501;-87
2021/07/19 16:19:49;;;;;;;12.10;3.00;;;;;;;;;;6195080;23;20195;-86
2021/07/19 16:22:55;;;;;;;19.40;4.85;;;;;;;;;;6195254;23;20195;-87
2021/07/19 16:25:59;;;;;;;13.35;4.72;;;;;;;;;;6194945;23;20176;-86
2021/07/19 16:29:04;;;;;;;10.27;3.95;;;;;;;;;;6194002;23;20494;-86
2021/07/19 16:32:10;;;;;;;16.83;4.18;;;;;;;;;;6193465;23;20160;-86
2021/07/19 16:35:16;;;;;;;11.32;4.68;;;;;;;;;;6192858;23;20172;-86
2021/07/19 16:38:21;;;;;;;12.70;3.53;;;;;;;;;;6193587;23;20168;-86
2021/07/19 16:41:27;;;;;;;21.33;4.05;;;;;;;;;;6194023;23;20187;-87
2021/07/19 16:44:32;;;;;;;15.63;3.78;;;;;;;;;;6193746;23;20218;-86
2021/07/19 16:47:37;;;;;;;9.20;3.47;;;;;;;;;;6193038;23;20719;-86
2021/07/19 16:50:46;;;;;;;11.63;3.35;;;;;;;;;;6195187;23;20160;-88
2021/07/19 16:53:51;;;;;;;7.82;3.50;;;;;;;;;;6193376;23;20172;-86
2021/07/19 16:56:56;;;;;;;11.95;3.47;;;;;;;;;;6194130;23;20220;-86
2021/07/19 17:00:09;;;;;;;6.35;3.45;;;;;;;;;;6192333;23;20203;-87
2021/07/19 17:03:14;;;;;;;8.25;3.45;;;;;;;;;;6193973;23;20507;-87
2021/07/19 17:06:21;;;;;;;9.30;3.20;;;;;;;;;;6193188;23;20721;-88
2021/07/19 17:09:25;;;;;;;8.40;3.47;;;;;;;;;;6196133;23;20224;-86
2021/07/19 17:12:30;;;;;;;12.45;3.65;;;;;;;;;;6191558;23;20183;-85
2021/07/19 17:15:36;;;;;;;7.68;3.97;;;;;;;;;;6191598;23;20490;-86
2021/07/19 17:18:40;;;;;;;10.45;3.97;;;;;;;;;;6191845;23;20191;-87
2021/07/19 17:21:48;;;;;;;11.68;4.40;;;;;;;;;;6191961;23;20171;-87
2021/07/19 17:24:53;;;;;;;12.13;3.90;;;;;;;;;;6193947;23;20172;-87
2021/07/19 17:28:00;;;;;;;9.85;3.35;;;;;;;;;;6193753;23;20222;-86
2021/07/19 17:31:05;;;;;;;8.30;3.08;;;;;;;;;;6193812;23;20167;-88
2021/07/19 17:34:10;;;;;;;7.78;3.00;;;;;;;;;;6191970;23;20168;-88
2021/07/19 17:37:16;;;;;;;8.13;3.42;;;;;;;;;;6194026;23;20264;-86
2021/07/19 17:40:26;;;;;;;13.82;4.07;;;;;;;;;;6192354;23;20308;-87
2021/07/19 17:43:31;;;;;;;8.77;3.47;;;;;;;;;;6192432;23;20175;-86
2021/07/19 17:46:36;;;;;;;8.30;3.38;;;;;;;;;;6193171;23;20184;-87
2021/07/19 17:49:41;;;;;;;11.05;3.42;;;;;;;;;;6191826;23;20171;-86
2021/07/19 17:52:49;;;;;;;12.15;3.72;;;;;;;;;;6193360;23;20207;-86
2021/07/19 17:55:54;;;;;;;8.85;3.35;;;;;;;;;;6194215;23;20215;-88
2021/07/19 17:58:59;;;;;;;8.98;3.40;;;;;;;;;;6191718;23;20536;-88
2021/07/19 18:02:04;;;;;;;9.20;3.85;;;;;;;;;;6192874;23;20168;-88
2021/07/19 18:05:10;;;;;;;8.75;3.72;;;;;;;;;;6193920;23;20865;-87
2021/07/19 18:08:17;;;;;;;11.60;4.30;;;;;;;;;;6194334;23;20175;-87
2021/07/19 18:11:22;;;;;;;10.88;3.92;;;;;;;;;;6195251;23;20171;-87
2021/07/19 18:14:27;;;;;;;8.77;3.20;;;;;;;;;;6195206;23;20179;-85
2021/07/19 18:17:32;;;;;;;9.57;3.97;;;;;;;;;;6195016;23;20175;-86
2021/07/19 18:20:38;;;;;;;10.43;4.47;;;;;;;;;;6195717;23;20262;-86
2021/07/19 18:23:47;;;;;;;8.05;4.05;;;;;;;;;;6195175;23;20199;-85
2021/07/19 18:30:30;;;;;;;10.75;3.78;;;;;;;;;;6197818;23;20168;-86
2021/07/19 18:33:35;;;;;;;9.80;4.30;;;;;;;;;;6197065;23;20486;-85
2021/07/19 18:36:40;;;;;;;7.82;4.28;;;;;;;;;;6195321;23;20172;-87